createdAt,value
2018-12-20T00:00:29.447Z,7.12
2018-12-20T00:02:58.657Z,6.35
2018-12-20T00:05:27.798Z,7.53
2018-12-20T00:07:57.473Z,7.28
2018-12-20T00:10:26.671Z,6.95
2018-12-20T00:12:55.792Z,5.42
2018-12-20T00:15:24.959Z,6.47
2018-12-20T00:17:54.599Z,4.42
2018-12-20T00:20:25.181Z,6.92
2018-12-20T00:22:54.294Z,9.35
2018-12-20T00:25:23.426Z,7.05
2018-12-20T00:27:53.424Z,4.67
2018-12-20T00:30:23.395Z,5.87
2018-12-20T00:32:53.498Z,5.70
2018-12-20T00:35:23.776Z,9.13
2018-12-20T00:37:53.061Z,5.22
2018-12-20T00:40:23.108Z,5.55
2018-12-20T00:42:52.702Z,4.35
2018-12-20T00:45:22.312Z,5.90
2018-12-20T00:47:51.684Z,6.95
2018-12-20T00:50:22.034Z,5.47
2018-12-20T00:52:52.807Z,5.08
2018-12-20T00:55:22.483Z,4.10
2018-12-20T00:57:51.580Z,7.42
2018-12-20T01:00:21.752Z,6.28
2018-12-20T01:02:55.229Z,4.58
2018-12-20T01:05:22.058Z,6.33
2018-12-20T01:07:51.590Z,8.78
2018-12-20T01:10:20.939Z,5.40
2018-12-20T01:12:50.238Z,5.45
2018-12-20T01:15:19.720Z,7.30
2018-12-20T01:17:48.932Z,6.00
2018-12-20T01:20:18.300Z,4.85
2018-12-20T01:22:48.992Z,5.83
2018-12-20T01:25:18.656Z,5.70
2018-12-20T01:27:48.966Z,7.95
2018-12-20T01:30:18.675Z,7.03
2018-12-20T01:32:48.683Z,8.85
2018-12-20T01:35:19.296Z,10.13
2018-12-20T01:37:48.594Z,5.03
2018-12-20T01:40:17.718Z,6.72
2018-12-20T01:42:47.061Z,4.65
2018-12-20T01:45:18.546Z,6.87
2018-12-20T01:47:47.643Z,5.33
2018-12-20T01:50:17.778Z,6.12
2018-12-20T01:52:46.893Z,5.92
2018-12-20T01:55:17.466Z,4.28
2018-12-20T01:57:46.838Z,5.35
2018-12-20T02:00:17.062Z,5.15
2018-12-20T02:02:46.908Z,5.15
2018-12-20T02:05:16.156Z,6.00
2018-12-20T02:07:45.278Z,7.92
2018-12-20T02:10:14.456Z,4.72
2018-12-20T02:12:43.616Z,7.12
2018-12-20T02:15:12.797Z,5.58
2018-12-20T02:17:41.969Z,5.03
2018-12-20T02:20:11.510Z,5.55
2018-12-20T02:22:41.545Z,4.47
2018-12-20T02:25:11.570Z,5.70
2018-12-20T02:27:41.817Z,4.92
2018-12-20T02:30:12.835Z,5.35
2018-12-20T02:32:42.588Z,5.75
2018-12-20T02:35:12.292Z,4.85
2018-12-20T02:37:41.369Z,5.40
2018-12-20T02:40:10.565Z,4.15
2018-12-20T02:42:39.909Z,13.22
2018-12-20T02:45:10.990Z,4.95
2018-12-20T02:47:40.285Z,6.87
2018-12-20T02:50:10.665Z,4.92
2018-12-20T02:52:39.855Z,6.95
2018-12-20T02:55:09.911Z,6.67
2018-12-20T02:57:39.196Z,4.67
2018-12-20T03:00:09.348Z,4.58
2018-12-20T03:02:38.488Z,5.55
2018-12-20T03:05:08.092Z,5.87
2018-12-20T03:07:37.354Z,5.80
2018-12-20T03:10:08.156Z,4.92
2018-12-20T03:12:37.472Z,6.92
2018-12-20T03:15:06.900Z,5.20
2018-12-20T03:17:36.093Z,6.40
2018-12-20T03:20:06.920Z,4.92
2018-12-20T03:22:36.780Z,4.90
2018-12-20T03:25:07.374Z,4.90
2018-12-20T03:27:37.904Z,4.60
2018-12-20T03:30:07.982Z,5.08
2018-12-20T03:32:38.021Z,6.30
2018-12-20T03:35:08.628Z,4.03
2018-12-20T03:37:38.972Z,4.75
2018-12-20T03:40:08.290Z,4.97
2018-12-20T03:42:37.676Z,5.37
2018-12-20T03:45:07.434Z,5.55
2018-12-20T03:47:37.150Z,5.58
2018-12-20T03:50:07.663Z,8.03
2018-12-20T03:52:36.767Z,5.80
2018-12-20T03:55:07.167Z,5.28
2018-12-20T03:57:36.200Z,5.97
2018-12-20T04:00:06.698Z,5.60
2018-12-20T04:02:35.756Z,5.22
2018-12-20T04:05:05.879Z,3.95
2018-12-20T04:07:34.976Z,6.40
2018-12-20T04:10:04.653Z,6.65
2018-12-20T04:12:33.830Z,5.53
2018-12-20T04:15:03.042Z,5.35
2018-12-20T04:17:33.078Z,4.60
2018-12-20T04:20:02.915Z,4.92
2018-12-20T04:22:33.479Z,4.67
2018-12-20T04:25:04.003Z,5.35
2018-12-20T04:27:34.202Z,5.78
2018-12-20T04:30:05.111Z,4.72
2018-12-20T04:32:34.463Z,5.67
2018-12-20T04:35:05.092Z,6.28
2018-12-20T04:37:35.407Z,5.90
2018-12-20T04:40:05.072Z,6.12
2018-12-20T04:42:34.305Z,5.05
2018-12-20T04:45:03.862Z,6.85
2018-12-20T04:47:33.302Z,5.60
2018-12-20T04:50:03.580Z,5.65
2018-12-20T04:52:33.393Z,5.10
2018-12-20T04:55:03.487Z,5.40
2018-12-20T04:57:32.609Z,4.75
2018-12-20T05:00:03.131Z,5.22
2018-12-20T05:02:32.255Z,5.03
2018-12-20T05:05:01.380Z,5.35
2018-12-20T05:07:30.508Z,5.30
2018-12-20T05:09:59.839Z,6.22
2018-12-20T05:12:28.956Z,4.53
2018-12-20T05:14:59.027Z,5.42
2018-12-20T05:17:28.087Z,4.87
2018-12-20T05:19:57.946Z,6.20
2018-12-20T05:22:28.240Z,5.45
2018-12-20T05:24:57.346Z,6.60
2018-12-20T05:27:27.678Z,4.45
2018-12-20T05:29:58.062Z,5.33
2018-12-20T05:32:27.601Z,5.17
2018-12-20T05:34:58.253Z,5.95
2018-12-20T05:37:28.596Z,4.47
2018-12-20T05:39:58.557Z,4.75
2018-12-20T05:42:27.640Z,5.85
2018-12-20T05:44:56.803Z,5.28
2018-12-20T05:47:26.059Z,5.40
2018-12-20T05:49:56.380Z,5.58
2018-12-20T05:52:25.487Z,5.42
2018-12-20T05:54:55.394Z,4.85
2018-12-20T05:57:24.632Z,4.60
2018-12-20T05:59:55.325Z,4.67
2018-12-20T06:02:24.451Z,4.28
2018-12-20T06:04:53.594Z,5.17
2018-12-20T06:07:22.760Z,5.20
2018-12-20T06:09:51.873Z,4.35
2018-12-20T06:12:21.815Z,6.47
2018-12-20T06:14:51.534Z,7.20
2018-12-20T06:17:20.613Z,6.87
2018-12-20T06:19:50.244Z,6.50
2018-12-20T06:22:19.639Z,9.45
2018-12-20T06:24:48.753Z,12.63
2018-12-20T06:27:18.571Z,10.68
2018-12-20T06:29:48.652Z,13.13
2018-12-20T06:32:17.777Z,10.23
2018-12-20T06:34:47.668Z,15.40
2018-12-20T06:37:17.548Z,10.13
2018-12-20T06:39:47.415Z,9.50
2018-12-20T06:42:16.540Z,17.57
2018-12-20T06:44:46.433Z,9.55
2018-12-20T06:47:15.677Z,11.28
2018-12-20T06:49:45.878Z,11.40
2018-12-20T06:52:15.154Z,9.50
2018-12-20T06:54:45.281Z,10.63
2018-12-20T06:57:14.564Z,9.20
2018-12-20T06:59:44.456Z,8.85
2018-12-20T07:02:14.672Z,14.73
2018-12-20T07:04:44.444Z,12.35
2018-12-20T07:07:13.544Z,10.40
2018-12-20T07:09:43.712Z,11.03
2018-12-20T07:12:12.780Z,9.45
2018-12-20T07:14:42.108Z,10.98
2018-12-20T07:17:12.328Z,7.20
2018-12-20T07:19:42.566Z,14.65
2018-12-20T07:22:12.476Z,10.43
2018-12-20T07:24:41.571Z,10.50
2018-12-20T07:27:11.647Z,8.88
2018-12-20T07:29:41.598Z,12.98
2018-12-20T07:32:11.526Z,8.68
2018-12-20T07:34:47.732Z,8.18
2018-12-20T07:37:13.105Z,9.90
2018-12-20T07:39:42.817Z,8.98
2018-12-20T07:42:11.912Z,8.63
2018-12-20T07:44:41.144Z,7.37
2018-12-20T07:47:10.259Z,6.37
2018-12-20T07:49:40.340Z,7.50
2018-12-20T07:52:09.467Z,6.60
2018-12-20T07:54:39.419Z,7.47
2018-12-20T07:57:09.691Z,9.30
2018-12-20T07:59:40.114Z,7.92
2018-12-20T08:02:09.357Z,5.75
2018-12-20T08:04:38.439Z,5.12
2018-12-20T08:07:11.356Z,5.67
2018-12-20T08:09:41.035Z,6.28
2018-12-20T08:12:10.325Z,5.62
2018-12-20T08:14:39.379Z,5.12
2018-12-20T08:17:08.587Z,7.78
2018-12-20T08:19:38.384Z,5.30
2018-12-20T08:22:08.114Z,4.58
2018-12-20T08:24:37.156Z,4.53
2018-12-20T08:27:06.252Z,4.55
2018-12-20T08:29:36.154Z,8.03
2018-12-20T08:32:05.231Z,4.55
2018-12-20T08:34:34.888Z,5.47
2018-12-20T08:37:04.902Z,4.58
2018-12-20T08:39:33.967Z,4.25
2018-12-20T08:42:04.029Z,5.00
2018-12-20T08:44:33.532Z,6.92
2018-12-20T08:47:02.680Z,4.85
2018-12-20T08:49:31.818Z,5.25
2018-12-20T08:52:01.404Z,7.08
2018-12-20T08:54:31.655Z,5.35
2018-12-20T08:57:01.325Z,4.17
2018-12-20T08:59:31.808Z,5.08
2018-12-20T09:02:00.900Z,7.00
2018-12-20T09:04:30.874Z,5.15
2018-12-20T09:06:59.961Z,5.62
2018-12-20T09:09:29.068Z,6.35
2018-12-20T09:11:58.371Z,4.42
2018-12-20T09:14:29.057Z,6.53
2018-12-20T09:17:02.866Z,6.25
2018-12-20T09:19:30.194Z,7.42
2018-12-20T09:21:59.529Z,10.98
2018-12-20T09:24:28.727Z,7.28
2018-12-20T09:26:59.037Z,8.30
2018-12-20T09:29:28.919Z,5.08
2018-12-20T09:31:58.032Z,6.12
2018-12-20T09:34:27.863Z,4.35
2018-12-20T09:36:56.967Z,6.25
2018-12-20T09:39:26.815Z,5.47
2018-12-20T09:41:55.912Z,6.60
2018-12-20T09:44:24.996Z,11.05
2018-12-20T09:46:58.364Z,8.53
2018-12-20T09:49:28.044Z,11.83
2018-12-20T09:51:57.637Z,10.00
2018-12-20T09:54:27.948Z,6.47
2018-12-20T09:56:57.072Z,6.92
2018-12-20T09:59:27.113Z,5.50
2018-12-20T10:01:57.410Z,8.58
2018-12-20T10:04:26.786Z,9.18
2018-12-20T10:06:56.029Z,6.10
2018-12-20T10:09:25.118Z,6.47
2018-12-20T10:11:54.341Z,10.20
2018-12-20T10:14:23.635Z,10.40
2018-12-20T10:16:52.817Z,12.05
2018-12-20T10:19:23.495Z,9.83
2018-12-20T10:21:52.566Z,12.40
2018-12-20T10:24:22.523Z,17.48
2018-12-20T10:26:52.303Z,12.40
2018-12-20T10:29:21.452Z,10.82
2018-12-20T10:31:51.059Z,17.25
2018-12-20T10:34:20.798Z,28.85
2018-12-20T10:36:49.857Z,18.17
2018-12-20T10:39:19.452Z,22.25
2018-12-20T10:41:48.507Z,21.45
2018-12-20T10:44:18.229Z,22.95
2018-12-20T10:46:47.399Z,20.62
2018-12-20T10:49:16.460Z,26.20
2018-12-20T10:51:46.670Z,18.23
2018-12-20T10:54:18.114Z,23.18
2018-12-20T10:56:47.632Z,28.02
2018-12-20T10:59:17.535Z,15.55
2018-12-20T11:01:51.679Z,20.30
2018-12-20T11:04:26.135Z,24.92
2018-12-20T11:07:02.316Z,19.70
2018-12-20T11:10:40.602Z,19.85
2018-12-20T11:13:14.987Z,20.32
2018-12-20T11:15:44.097Z,16.97
2018-12-20T11:18:13.278Z,15.58
2018-12-20T11:20:42.496Z,18.23
2018-12-20T11:23:11.792Z,18.10
2018-12-20T11:25:41.793Z,12.95
2018-12-20T11:28:11.777Z,16.35
2018-12-20T11:30:42.290Z,15.05
2018-12-20T11:33:12.481Z,15.60
2018-12-20T11:35:41.655Z,18.27
2018-12-20T11:38:11.579Z,24.47
2018-12-20T11:40:40.803Z,11.08
2018-12-20T11:43:09.848Z,17.90
2018-12-20T11:45:40.361Z,27.73
2018-12-20T11:48:10.160Z,18.70
2018-12-20T11:50:45.430Z,22.52
2018-12-20T11:53:15.280Z,16.57
2018-12-20T11:55:45.215Z,20.30
2018-12-20T11:58:14.872Z,20.25
2018-12-20T12:00:44.667Z,15.70
2018-12-20T12:03:13.745Z,16.55
2018-12-20T12:05:43.156Z,21.20
2018-12-20T12:08:12.659Z,17.95
2018-12-20T12:10:41.707Z,20.77
2018-12-20T12:13:12.098Z,15.72
2018-12-20T12:15:41.333Z,18.48
2018-12-20T12:18:11.072Z,15.50
2018-12-20T12:20:40.283Z,15.75
2018-12-20T12:23:09.880Z,16.10
2018-12-20T12:25:39.833Z,15.78
2018-12-20T12:28:09.317Z,16.05
2018-12-20T12:30:39.856Z,13.20
2018-12-20T12:33:09.694Z,10.60
2018-12-20T12:35:38.777Z,13.68
2018-12-20T12:38:08.250Z,15.20
2018-12-20T12:40:38.648Z,12.33
2018-12-20T12:43:07.872Z,14.00
2018-12-20T12:45:37.681Z,12.60
2018-12-20T12:48:07.765Z,14.50
2018-12-20T12:50:36.970Z,16.82
2018-12-20T12:53:07.031Z,12.50
2018-12-20T12:55:36.999Z,16.17
2018-12-20T12:58:06.368Z,17.57
2018-12-20T13:00:36.975Z,13.80
2018-12-20T13:03:06.038Z,15.70
2018-12-20T13:05:35.128Z,14.68
2018-12-20T13:08:04.741Z,15.00
2018-12-20T13:10:33.831Z,18.32
2018-12-20T13:13:02.996Z,15.70
2018-12-20T13:15:32.357Z,17.00
2018-12-20T13:18:04.571Z,15.72
2018-12-20T13:20:33.774Z,15.13
2018-12-20T13:23:02.999Z,12.93
2018-12-20T13:25:32.200Z,20.95
2018-12-20T13:28:02.171Z,15.75
2018-12-20T13:30:31.624Z,17.57
2018-12-20T13:33:01.240Z,13.88
2018-12-20T13:35:30.431Z,14.35
2018-12-20T13:37:59.530Z,16.48
2018-12-20T13:40:29.903Z,11.40
2018-12-20T13:42:59.165Z,17.37
2018-12-20T13:45:28.323Z,16.97
2018-12-20T13:47:58.288Z,13.48
2018-12-20T13:50:28.094Z,15.98
2018-12-20T13:52:57.861Z,16.35
2018-12-20T13:55:27.714Z,14.25
2018-12-20T13:57:56.963Z,13.53
2018-12-20T14:00:27.225Z,39.80
2018-12-20T14:02:56.843Z,23.15
2018-12-20T14:05:27.563Z,21.27
2018-12-20T14:07:58.925Z,21.40
2018-12-20T14:10:27.783Z,16.48
2018-12-20T14:12:57.795Z,19.77
2018-12-20T14:15:27.547Z,21.07
2018-12-20T14:17:57.400Z,12.05
2018-12-20T14:20:26.616Z,21.17
2018-12-20T14:22:56.509Z,17.65
2018-12-20T14:25:25.672Z,16.45
2018-12-20T14:27:55.052Z,14.75
2018-12-20T14:30:24.859Z,16.12
2018-12-20T14:32:54.794Z,10.82
2018-12-20T14:35:23.881Z,17.87
2018-12-20T14:37:52.974Z,13.62
2018-12-20T14:40:22.700Z,14.33
2018-12-20T14:42:52.415Z,12.33
2018-12-20T14:45:22.276Z,14.23
2018-12-20T14:47:52.768Z,10.85
2018-12-20T14:50:22.896Z,16.15
2018-12-20T14:52:52.965Z,11.28
2018-12-20T14:55:22.908Z,13.50
2018-12-20T14:57:52.331Z,10.58
2018-12-20T15:00:21.805Z,8.25
2018-12-20T15:02:50.993Z,10.30
2018-12-20T15:05:20.104Z,12.80
2018-12-20T15:07:50.184Z,12.05
2018-12-20T15:10:19.299Z,11.78
2018-12-20T15:12:48.437Z,7.33
2018-12-20T15:15:17.924Z,9.45
2018-12-20T15:17:48.248Z,10.45
2018-12-20T15:20:17.322Z,12.25
2018-12-20T15:22:46.371Z,7.28
2018-12-20T15:25:15.545Z,9.75
2018-12-20T15:27:46.004Z,10.68
2018-12-20T15:30:16.466Z,8.08
2018-12-20T15:32:45.561Z,9.70
2018-12-20T15:35:15.291Z,10.98
2018-12-20T15:37:45.003Z,8.55
2018-12-20T15:40:15.167Z,10.20
2018-12-20T15:42:44.932Z,8.03
2018-12-20T15:45:14.781Z,9.03
2018-12-20T15:47:44.427Z,8.13
2018-12-20T15:50:13.561Z,7.65
2018-12-20T15:52:43.393Z,9.40
2018-12-20T15:55:13.547Z,6.67
2018-12-20T15:57:42.648Z,13.85
2018-12-20T16:00:12.843Z,7.58
2018-12-20T16:02:42.073Z,6.10
2018-12-20T16:05:11.243Z,7.30
2018-12-20T16:07:40.832Z,7.50
2018-12-20T16:10:11.231Z,9.23
2018-12-20T16:12:40.367Z,6.72
2018-12-20T16:15:10.371Z,7.80
2018-12-20T16:17:40.459Z,7.65
2018-12-20T16:20:09.563Z,7.20
2018-12-20T16:22:38.635Z,6.87
2018-12-20T16:25:08.666Z,6.20
2018-12-20T16:27:38.051Z,8.15
2018-12-20T16:30:10.226Z,6.95
2018-12-20T16:32:40.478Z,7.80
2018-12-20T16:35:10.211Z,5.15
2018-12-20T16:37:39.397Z,6.65
2018-12-20T16:40:09.317Z,6.20
2018-12-20T16:42:38.829Z,7.33
2018-12-20T16:45:08.365Z,4.80
2018-12-20T16:47:38.247Z,7.70
2018-12-20T16:50:09.087Z,5.90
2018-12-20T16:52:38.220Z,7.95
2018-12-20T16:55:08.832Z,6.53
2018-12-20T16:57:37.970Z,6.70
2018-12-20T17:00:09.179Z,5.40
2018-12-20T17:02:38.260Z,6.22
2018-12-20T17:05:07.692Z,5.12
2018-12-20T17:07:37.992Z,5.28
2018-12-20T17:10:08.056Z,5.15
2018-12-20T17:12:37.147Z,4.55
2018-12-20T17:15:08.804Z,6.08
2018-12-20T17:17:37.839Z,3.33
2018-12-20T17:20:07.818Z,5.33
2018-12-20T17:22:36.973Z,4.08
2018-12-20T17:25:07.067Z,4.55
2018-12-20T17:27:36.189Z,4.10
2018-12-20T17:30:07.997Z,4.92
2018-12-20T17:32:37.132Z,5.28
2018-12-20T17:35:07.255Z,4.75
2018-12-20T17:37:36.417Z,4.53
2018-12-20T17:40:06.968Z,6.08
2018-12-20T17:42:36.069Z,9.45
2018-12-20T17:45:07.504Z,3.05
2018-12-20T17:47:36.935Z,4.37
2018-12-20T17:50:07.105Z,5.95
2018-12-20T17:52:36.183Z,6.12
2018-12-20T17:55:06.052Z,9.33
2018-12-20T17:57:35.110Z,5.42
2018-12-20T18:00:06.775Z,5.62
2018-12-20T18:02:35.884Z,6.12
2018-12-20T18:05:07.156Z,7.42
2018-12-20T18:07:36.899Z,9.15
2018-12-20T18:10:09.272Z,9.03
2018-12-20T18:12:39.453Z,13.62
2018-12-20T18:15:10.843Z,13.58
2018-12-20T18:17:40.173Z,17.42
2018-12-20T18:20:10.583Z,8.63
2018-12-20T18:22:39.780Z,9.50
2018-12-20T18:25:08.948Z,10.10
2018-12-20T18:27:38.048Z,8.63
2018-12-20T18:30:10.528Z,12.88
2018-12-20T18:32:39.633Z,13.90
2018-12-20T18:35:09.588Z,9.23
2018-12-20T18:37:39.129Z,11.93
2018-12-20T18:40:09.342Z,11.78
2018-12-20T18:42:39.225Z,9.45
2018-12-20T18:45:08.892Z,12.73
2018-12-20T18:47:38.484Z,12.50
2018-12-20T18:50:09.552Z,12.80
2018-12-20T18:52:38.672Z,12.43
2018-12-20T18:55:08.587Z,15.95
2018-12-20T18:57:37.741Z,10.43
2018-12-20T19:00:09.031Z,10.45
2018-12-20T19:02:39.542Z,11.48
2018-12-20T19:05:08.836Z,14.60
2018-12-20T19:07:38.694Z,9.80
2018-12-20T19:10:09.448Z,8.48
2018-12-20T19:12:38.580Z,11.22
2018-12-20T19:15:09.348Z,14.07
2018-12-20T19:17:38.528Z,13.13
2018-12-20T19:20:16.039Z,14.68
2018-12-20T19:22:40.267Z,13.35
2018-12-20T19:25:09.365Z,9.73
2018-12-20T19:27:39.337Z,10.32
2018-12-20T19:30:10.792Z,12.35
2018-12-20T19:32:39.894Z,10.43
2018-12-20T19:35:09.609Z,7.22
2018-12-20T19:37:38.759Z,14.63
2018-12-20T19:40:10.241Z,12.68
2018-12-20T19:42:40.107Z,15.60
2018-12-20T19:45:09.396Z,10.53
2018-12-20T19:47:39.393Z,15.35
2018-12-20T19:50:09.982Z,10.72
2018-12-20T19:52:40.311Z,10.63
2018-12-20T19:55:09.868Z,14.95
2018-12-20T19:57:39.611Z,17.30
2018-12-20T20:00:12.895Z,11.43
2018-12-20T20:02:41.970Z,10.35
2018-12-20T20:05:11.099Z,10.20
2018-12-20T20:07:41.057Z,9.85
2018-12-20T20:10:12.032Z,11.57
2018-12-20T20:12:41.116Z,11.95
2018-12-20T20:15:16.359Z,9.30
2018-12-20T20:17:43.614Z,8.98
2018-12-20T20:20:14.227Z,10.55
2018-12-20T20:22:43.588Z,14.93
2018-12-20T20:25:12.748Z,11.75
2018-12-20T20:27:43.296Z,6.67
2018-12-20T20:30:15.288Z,8.88
2018-12-20T20:32:44.351Z,7.47
2018-12-20T20:35:14.034Z,9.23
2018-12-20T20:37:43.847Z,8.35
2018-12-20T20:40:13.011Z,11.10
2018-12-20T20:42:42.521Z,8.05
2018-12-20T20:45:11.809Z,9.35
2018-12-20T20:47:41.681Z,7.42
2018-12-20T20:50:10.761Z,7.20
2018-12-20T20:52:41.028Z,10.43
2018-12-20T20:55:11.258Z,5.92
2018-12-20T20:57:40.419Z,5.40
2018-12-20T21:00:12.558Z,8.73
2018-12-20T21:02:42.851Z,5.67
2018-12-20T21:05:12.909Z,6.90
2018-12-20T21:07:43.181Z,5.30
2018-12-20T21:10:13.012Z,4.67
2018-12-20T21:12:42.076Z,4.33
2018-12-20T21:15:12.951Z,8.28
2018-12-20T21:17:42.798Z,6.58
2018-12-20T21:20:13.530Z,11.05
2018-12-20T21:22:42.618Z,7.92
2018-12-20T21:25:11.855Z,6.30
2018-12-20T21:27:41.094Z,5.65
2018-12-20T21:30:11.224Z,9.65
2018-12-20T21:32:40.311Z,6.53
2018-12-20T21:35:10.087Z,6.75
2018-12-20T21:37:39.268Z,5.55
2018-12-20T21:40:09.038Z,5.08
2018-12-20T21:42:38.840Z,5.42
2018-12-20T21:45:09.026Z,5.80
2018-12-20T21:47:38.855Z,3.83
2018-12-20T21:50:10.916Z,8.85
2018-12-20T21:52:40.220Z,4.17
2018-12-20T21:55:11.305Z,5.75
2018-12-20T21:57:40.711Z,4.95
2018-12-20T22:00:10.941Z,4.47
2018-12-20T22:02:40.323Z,6.53
2018-12-20T22:05:10.415Z,7.15
2018-12-20T22:07:40.135Z,4.87
2018-12-20T22:10:10.665Z,4.90
2018-12-20T22:12:39.763Z,3.37
2018-12-20T22:15:09.453Z,3.70
2018-12-20T22:17:38.502Z,5.80
2018-12-20T22:20:08.093Z,6.10
2018-12-20T22:22:37.192Z,8.73
2018-12-20T22:25:07.340Z,8.55
2018-12-20T22:27:36.523Z,4.70
2018-12-20T22:30:08.913Z,5.03
2018-12-20T22:32:38.452Z,5.75
2018-12-20T22:35:08.772Z,5.55
2018-12-20T22:37:38.576Z,3.83
2018-12-20T22:40:08.300Z,6.75
2018-12-20T22:42:38.172Z,4.30
2018-12-20T22:45:09.656Z,5.05
2018-12-20T22:47:39.397Z,5.30
2018-12-20T22:50:10.066Z,5.50
2018-12-20T22:52:39.729Z,4.30
2018-12-20T22:55:09.472Z,4.28
2018-12-20T22:57:38.564Z,5.25
2018-12-20T23:00:12.208Z,4.80
2018-12-20T23:02:42.100Z,7.35
2018-12-20T23:05:11.169Z,6.45
2018-12-20T23:07:40.655Z,4.70
2018-12-20T23:10:09.969Z,4.85
2018-12-20T23:12:39.924Z,4.78
2018-12-20T23:15:09.871Z,3.85
2018-12-20T23:17:39.021Z,5.35
2018-12-20T23:20:09.285Z,5.65
2018-12-20T23:22:38.412Z,2.75
2018-12-20T23:25:08.279Z,3.40
2018-12-20T23:27:37.429Z,3.85
2018-12-20T23:30:07.959Z,4.83
2018-12-20T23:32:37.695Z,3.52
2018-12-20T23:35:07.568Z,5.60
2018-12-20T23:37:36.643Z,5.37
2018-12-20T23:40:05.913Z,3.02
2018-12-20T23:42:35.599Z,4.70
2018-12-20T23:45:04.897Z,5.80
2018-12-20T23:47:34.393Z,4.15
2018-12-20T23:50:05.603Z,3.08
2018-12-20T23:52:34.801Z,4.15
2018-12-20T23:55:05.018Z,4.78
2018-12-20T23:57:34.856Z,4.95
